Time;durP1;ratioP1;P1;durP2;ratioP2;P2;SDS_P1;SDS_P2;PMS_P1;PMS_P2;Temp;Humidity;BMP_temperature;BMP_pressure;BME280_temperature;BME280_humidity;BME280_pressure;Samples;Min_cycle;Max_cycle;Signal;HPM_P1;HPM_P2
2024/03/31 00:01:08;;;;;;;2.33;1.73;;;;;;;9.98;100.00;98942.69;4920255;28;20054;-70
2024/03/31 00:03:35;;;;;;;2.05;1.77;;;;;;;9.91;100.00;98944.41;4942093;28;20413;-70
2024/03/31 00:06:03;;;;;;;2.33;1.67;;;;;;;9.94;100.00;98946.72;4924761;28;20059;-71
2024/03/31 00:08:28;;;;;;;2.47;1.70;;;;;;;9.85;100.00;98945.09;4956683;28;20046;-70
2024/03/31 00:11:12;;;;;;;1.60;1.50;;;;;;;10.02;100.00;98950.16;4947683;28;20146;-71
2024/03/31 00:13:38;;;;;;;1.60;1.42;;;;;;;9.87;100.00;98951.06;4995913;28;20056;-70
2024/03/31 00:16:04;;;;;;;2.05;1.55;;;;;;;9.83;100.00;98949.72;4996079;28;20389;-70
2024/03/31 00:18:31;;;;;;;2.47;1.25;;;;;;;9.81;100.00;98952.53;4979447;28;20072;-70
2024/03/31 00:20:58;;;;;;;2.38;1.60;;;;;;;9.80;100.00;98947.41;4996251;28;20144;-71
2024/03/31 00:23:26;;;;;;;2.38;1.60;;;;;;;9.79;100.00;98948.41;4996023;28;20488;-70
2024/03/31 00:25:58;;;;;;;1.90;1.70;;;;;;;9.92;100.00;98954.84;4963709;28;20166;-70
2024/03/31 00:28:24;;;;;;;2.85;1.48;;;;;;;9.79;100.00;98956.38;4963444;28;20137;-69
2024/03/31 00:30:57;;;;;;;2.47;1.60;;;;;;;9.88;100.00;98963.31;5015343;28;20130;-70
2024/03/31 00:33:25;;;;;;;2.17;1.55;;;;;;;9.72;100.00;98958.03;5015755;28;20148;-70
2024/03/31 00:35:53;;;;;;;1.77;1.60;;;;;;;9.77;100.00;98964.50;5015110;28;20041;-71
2024/03/31 00:38:19;;;;;;;2.03;1.70;;;;;;;9.69;100.00;98975.09;4996135;28;20061;-70
2024/03/31 00:40:44;;;;;;;1.83;1.40;;;;;;;9.64;100.00;98958.88;5052227;28;20545;-70
2024/03/31 00:43:14;;;;;;;1.88;1.50;;;;;;;9.70;100.00;98958.19;5035563;28;20527;-70
2024/03/31 00:45:41;;;;;;;1.73;1.45;;;;;;;9.67;100.00;98971.78;5019348;28;20044;-70
2024/03/31 00:48:09;;;;;;;1.63;1.52;;;;;;;9.72;100.00;98972.13;5051938;28;20053;-71
2024/03/31 00:50:37;;;;;;;2.72;1.75;;;;;;;9.66;100.00;98971.97;5034596;28;20053;-70
2024/03/31 00:53:03;;;;;;;2.45;1.45;;;;;;;9.60;100.00;98973.47;4981818;28;20140;-70
2024/03/31 00:55:32;;;;;;;2.28;1.60;;;;;;;9.57;100.00;98979.13;4982401;28;20054;-70
2024/03/31 00:57:58;;;;;;;2.13;1.63;;;;;;;9.55;100.00;98980.25;4966162;28;20160;-70
2024/03/31 01:00:25;;;;;;;1.95;1.50;;;;;;;9.54;100.00;98982.09;4997912;28;20139;-70
2024/03/31 01:02:50;;;;;;;1.83;1.42;;;;;;;9.53;100.00;98983.06;4998182;28;20052;-70
2024/03/31 01:05:18;;;;;;;1.98;1.65;;;;;;;9.62;100.00;98984.75;4981924;28;20068;-71
2024/03/31 01:07:44;;;;;;;2.25;1.80;;;;;;;9.50;100.00;98985.25;4955712;28;20046;-70
2024/03/31 01:10:11;;;;;;;3.30;1.70;;;;;;;9.50;100.00;98995.84;4956254;28;20054;-72
2024/03/31 01:12:37;;;;;;;2.40;1.73;;;;;;;9.50;100.00;98991.34;4924766;28;20113;-70
2024/03/31 01:15:03;;;;;;;2.65;1.80;;;;;;;9.49;100.00;98999.47;4924332;28;20053;-70
2024/03/31 01:17:30;;;;;;;2.58;1.50;;;;;;;9.47;100.00;98997.00;4939841;28;20489;-70
2024/03/31 01:19:58;;;;;;;1.98;1.50;;;;;;;9.47;100.00;98997.00;4941349;28;20082;-71
2024/03/31 01:22:24;;;;;;;2.42;1.55;;;;;;;9.49;100.00;99002.97;4925343;28;20066;-71
2024/03/31 01:24:54;;;;;;;2.78;1.92;;;;;;;9.58;100.00;99001.16;4923621;28;20061;-70
2024/03/31 01:27:20;;;;;;;3.55;2.20;;;;;;;9.42;100.00;99002.00;4955818;28;20370;-70
2024/03/31 01:29:46;;;;;;;1.80;1.70;;;;;;;9.42;100.00;99012.59;4948028;28;20060;-71
2024/03/31 01:32:12;;;;;;;3.67;2.05;;;;;;;9.47;100.00;99028.81;4976257;28;20219;-70
2024/03/31 01:34:39;;;;;;;2.63;1.85;;;;;;;9.50;100.00;99032.97;4959713;28;20049;-70
2024/03/31 01:37:05;;;;;;;3.00;2.10;;;;;;;9.45;100.00;99025.50;4975552;28;20042;-71
2024/03/31 01:39:31;;;;;;;1.70;1.60;;;;;;;9.44;100.00;99036.28;5006686;28;20063;-71
2024/03/31 01:41:58;;;;;;;2.10;1.80;;;;;;;9.54;100.00;99034.28;5033310;28;20059;-71
2024/03/31 01:44:24;;;;;;;2.08;1.70;;;;;;;9.39;100.00;99031.47;4998696;28;20478;-71
2024/03/31 01:46:50;;;;;;;3.25;1.95;;;;;;;9.40;100.00;99045.53;5000502;28;20057;-70
2024/03/31 01:49:17;;;;;;;3.97;1.80;;;;;;;9.35;100.00;99038.06;5017225;28;20149;-70
2024/03/31 01:51:43;;;;;;;2.83;2.03;;;;;;;9.31;100.00;99042.06;5016772;28;20632;-70
2024/03/31 01:54:10;;;;;;;3.58;2.03;;;;;;;9.27;100.00;99043.38;5017085;28;20152;-70
2024/03/31 01:56:37;;;;;;;2.15;1.90;;;;;;;9.31;100.00;99050.00;5033065;28;20044;-70
2024/03/31 01:59:07;;;;;;;2.38;2.00;;;;;;;9.41;100.00;99053.31;5017015;28;20063;-71
2024/03/31 02:01:35;;;;;;;2.55;1.95;;;;;;;9.36;100.00;99058.31;5033268;28;20040;-70
2024/03/31 02:04:01;;;;;;;2.28;1.73;;;;;;;9.27;100.00;99059.25;4984050;28;20088;-70
2024/03/31 02:06:27;;;;;;;2.90;1.80;;;;;;;9.25;100.00;99068.38;5033169;28;20041;-70
2024/03/31 02:08:52;;;;;;;2.95;1.77;;;;;;;9.23;100.00;99060.59;5000402;28;20050;-70
2024/03/31 02:11:18;;;;;;;4.10;2.05;;;;;;;9.23;100.00;99073.84;5000378;28;20140;-70
2024/03/31 02:13:47;;;;;;;3.90;2.10;;;;;;;9.16;100.00;99072.84;5001050;28;20046;-70
2024/03/31 02:16:13;;;;;;;3.47;1.90;;;;;;;9.15;100.00;99075.66;5014155;28;20374;-70
2024/03/31 02:18:41;;;;;;;2.85;1.88;;;;;;;9.21;100.00;99081.13;5034111;28;20444;-70
2024/03/31 02:21:07;;;;;;;3.13;1.83;;;;;;;9.18;100.00;99085.94;5000850;28;20059;-71
2024/03/31 02:23:35;;;;;;;1.90;1.63;;;;;;;9.22;100.00;99080.13;5017520;28;20056;-70
2024/03/31 02:26:03;;;;;;;2.15;1.80;;;;;;;9.12;100.00;99083.94;5050875;28;20152;-70
2024/03/31 02:28:36;;;;;;;3.50;2.30;;;;;;;9.19;100.00;99092.88;5017875;28;20107;-70
2024/03/31 02:31:02;;;;;;;2.17;1.90;;;;;;;9.11;100.00;99085.75;5033794;28;20483;-69
2024/03/31 02:33:32;;;;;;;2.72;1.90;;;;;;;9.20;100.00;99091.88;5017648;28;20044;-69
2024/03/31 02:35:59;;;;;;;2.85;1.85;;;;;;;9.11;100.00;99095.50;5014260;28;20049;-71
2024/03/31 02:38:24;;;;;;;2.15;1.95;;;;;;;9.07;100.00;99099.47;4950313;28;20496;-70
2024/03/31 02:40:50;;;;;;;3.00;1.98;;;;;;;9.10;100.00;99101.78;4998121;28;20037;-70
2024/03/31 02:43:18;;;;;;;2.47;1.77;;;;;;;9.19;100.00;99112.25;4965333;28;20458;-70
2024/03/31 02:45:47;;;;;;;3.22;1.98;;;;;;;9.10;100.00;99107.91;4998666;28;20048;-70
2024/03/31 02:48:13;;;;;;;2.88;2.03;;;;;;;9.09;100.00;99108.91;4998607;28;20037;-71
2024/03/31 02:50:39;;;;;;;3.63;1.75;;;;;;;9.09;100.00;99102.78;4982723;28;20041;-70
2024/03/31 02:53:06;;;;;;;1.98;1.75;;;;;;;9.08;100.00;99101.97;4984091;28;20037;-70
2024/03/31 02:55:34;;;;;;;2.22;1.80;;;;;;;9.10;100.00;99110.56;5033482;28;20149;-70
2024/03/31 02:58:01;;;;;;;2.22;1.83;;;;;;;9.12;100.00;99110.44;5017087;28;20536;-70
2024/03/31 03:00:27;;;;;;;3.78;2.13;;;;;;;9.10;100.00;99118.50;4984228;28;20045;-72
2024/03/31 03:02:53;;;;;;;4.07;2.30;;;;;;;9.10;100.00;99121.16;4968279;28;20042;-70
2024/03/31 03:05:19;;;;;;;2.67;2.00;;;;;;;9.12;100.00;99123.66;4984097;28;20057;-69
2024/03/31 03:07:45;;;;;;;2.20;1.77;;;;;;;9.11;100.00;99125.47;5000664;28;20038;-71
2024/03/31 03:10:11;;;;;;;2.33;1.88;;;;;;;9.09;100.00;99123.97;4999995;28;20052;-70
2024/03/31 03:12:39;;;;;;;3.88;2.50;;;;;;;9.12;100.00;99142.22;5000511;28;20563;-70
2024/03/31 03:15:07;;;;;;;3.25;2.00;;;;;;;9.13;100.00;99142.06;4996528;28;20145;-70
2024/03/31 03:17:35;;;;;;;2.72;2.05;;;;;;;9.11;100.00;99140.53;4996751;28;20144;-69
2024/03/31 03:20:01;;;;;;;2.65;1.98;;;;;;;9.18;100.00;99150.31;4964134;28;20054;-69
2024/03/31 03:22:27;;;;;;;2.97;2.08;;;;;;;9.20;100.00;99166.91;4980641;28;20507;-70
2024/03/31 03:24:54;;;;;;;6.20;3.80;;;;;;;9.25;100.00;99161.13;4964405;28;20056;-69
2024/03/31 03:27:20;;;;;;;3.72;2.80;;;;;;;9.23;100.00;99161.28;4964443;28;20081;-69
2024/03/31 03:29:47;;;;;;;4.50;3.00;;;;;;;9.24;100.00;99168.22;4980542;28;20050;-70
2024/03/31 03:32:14;;;;;;;3.97;2.60;;;;;;;9.26;100.00;99181.31;4980586;28;20045;-69
2024/03/31 03:34:42;;;;;;;3.15;2.40;;;;;;;9.29;100.00;99168.56;4996550;28;20575;-69
2024/03/31 03:37:09;;;;;;;3.83;2.58;;;;;;;9.32;100.00;99175.38;4980248;28;20042;-70
2024/03/31 03:39:35;;;;;;;4.07;2.40;;;;;;;9.24;100.00;99170.06;4996463;28;20068;-69
2024/03/31 03:42:04;;;;;;;3.70;2.10;;;;;;;9.41;100.00;99172.56;4980210;28;20145;-70
2024/03/31 03:44:32;;;;;;;2.17;1.97;;;;;;;9.34;100.00;99184.00;4963862;28;20060;-70
2024/03/31 03:46:57;;;;;;;2.15;1.95;;;;;;;9.37;100.00;99184.50;5028617;28;20293;-70
2024/03/31 03:49:23;;;;;;;2.40;2.17;;;;;;;9.41;100.00;99188.47;5052857;28;20383;-69
2024/03/31 03:51:53;;;;;;;1.83;1.70;;;;;;;9.51;100.00;99185.69;5036478;28;20109;-70
2024/03/31 03:54:18;;;;;;;3.05;1.77;;;;;;;9.50;100.00;99197.31;5019555;28;20107;-69
2024/03/31 03:56:44;;;;;;;2.42;1.50;;;;;;;9.55;100.00;99194.97;5036133;28;20052;-70
2024/03/31 03:59:12;;;;;;;2.85;1.60;;;;;;;9.58;100.00;99200.78;5019830;28;20044;-70
2024/03/31 04:01:38;;;;;;;2.45;1.58;;;;;;;9.63;100.00;99209.09;5036073;28;20041;-70
2024/03/31 04:04:04;;;;;;;2.53;2.03;;;;;;;9.66;100.00;99207.94;5035891;28;20106;-69
2024/03/31 04:06:30;;;;;;;2.67;2.10;;;;;;;9.73;100.00;99215.06;5036524;28;20037;-69
2024/03/31 04:08:56;;;;;;;3.13;2.20;;;;;;;9.74;100.00;99219.41;5036190;28;20044;-70
2024/03/31 04:11:23;;;;;;;2.75;2.17;;;;;;;9.78;100.00;99215.41;5035814;28;20075;-69
2024/03/31 04:13:49;;;;;;;3.15;1.95;;;;;;;9.78;100.00;99206.63;5068904;28;20045;-71
2024/03/31 04:16:16;;;;;;;2.83;2.03;;;;;;;9.81;100.00;99219.59;5019505;28;20167;-72
2024/03/31 04:18:43;;;;;;;2.72;2.08;;;;;;;9.91;100.00;99225.56;5052845;28;20079;-69
2024/03/31 04:21:10;;;;;;;2.30;2.10;;;;;;;9.95;100.00;99235.66;5019650;28;20227;-69
2024/03/31 04:23:39;;;;;;;1.98;1.67;;;;;;;10.09;100.00;99235.06;5036422;28;20048;-70
2024/03/31 04:26:05;;;;;;;2.17;1.97;;;;;;;10.01;100.00;99237.66;5036246;28;20049;-69
2024/03/31 04:28:31;;;;;;;3.97;2.00;;;;;;;9.98;100.00;99245.09;5019247;28;20793;-71
2024/03/31 04:31:03;;;;;;;3.13;2.20;;;;;;;10.11;100.00;99243.69;5052512;28;20475;-70
2024/03/31 04:33:32;;;;;;;2.67;2.10;;;;;;;9.99;100.00;99250.25;5053133;28;20186;-73
2024/03/31 04:36:00;;;;;;;6.95;2.42;;;;;;;9.98;100.00;99253.91;5035827;28;20037;-70
2024/03/31 04:38:26;;;;;;;4.75;2.72;;;;;;;9.97;100.00;99248.75;5053133;28;20064;-71
2024/03/31 04:40:54;;;;;;;2.97;2.65;;;;;;;10.06;100.00;99253.94;5035417;28;20373;-71
2024/03/31 04:43:20;;;;;;;3.53;2.65;;;;;;;10.04;100.00;99261.22;5035231;28;20452;-72
2024/03/31 04:46:07;;;;;;;4.00;2.65;;;;;;;10.24;100.00;99272.38;5052032;28;20055;-72
2024/03/31 04:48:34;;;;;;;3.08;2.42;;;;;;;10.13;100.00;99270.88;5035934;28;20049;-71
2024/03/31 04:51:03;;;;;;;4.22;2.40;;;;;;;10.21;100.00;99275.34;5052359;28;20040;-71
2024/03/31 04:53:31;;;;;;;3.50;2.70;;;;;;;10.16;100.00;99275.03;5052461;28;20045;-71
2024/03/31 04:56:00;;;;;;;3.15;2.30;;;;;;;10.21;100.00;99281.50;5019167;28;20128;-71
2024/03/31 04:58:27;;;;;;;3.30;2.42;;;;;;;10.19;100.00;99274.72;5052346;28;20347;-71
2024/03/31 05:00:53;;;;;;;4.03;2.15;;;;;;;10.14;100.00;99277.84;5052555;28;20041;-71
2024/03/31 05:03:20;;;;;;;3.03;2.50;;;;;;;10.24;100.00;99285.63;5052844;28;20052;-71
2024/03/31 05:05:47;;;;;;;3.75;2.40;;;;;;;10.27;100.00;99296.75;5036255;28;20045;-70
2024/03/31 05:08:13;;;;;;;3.70;2.40;;;;;;;10.36;100.00;99291.47;5036019;28;20123;-71
2024/03/31 05:10:38;;;;;;;3.97;2.80;;;;;;;10.39;100.00;99288.47;5019463;28;20049;-70
2024/03/31 05:13:05;;;;;;;4.60;2.53;;;;;;;10.42;100.00;99296.13;5035611;28;20045;-72
2024/03/31 05:15:31;;;;;;;2.83;2.50;;;;;;;10.48;100.00;99296.28;5035330;28;20045;-70
2024/03/31 05:17:58;;;;;;;6.97;3.50;;;;;;;10.51;100.00;99303.09;4997912;28;20060;-71
2024/03/31 05:20:26;;;;;;;4.80;3.40;;;;;;;10.69;100.00;99303.75;5014542;28;20161;-71
2024/03/31 05:22:53;;;;;;;7.13;3.95;;;;;;;10.67;100.00;99311.88;4981566;28;20045;-71
2024/03/31 05:25:22;;;;;;;4.93;3.67;;;;;;;10.72;100.00;99304.25;5014358;28;20053;-70
2024/03/31 05:27:51;;;;;;;5.28;3.63;;;;;;;10.92;100.00;99318.00;4998043;28;20144;-71
2024/03/31 05:30:18;;;;;;;4.07;2.70;;;;;;;10.83;100.00;99314.53;4997776;28;20128;-70
2024/03/31 05:32:45;;;;;;;4.93;3.33;;;;;;;10.87;100.00;99320.34;5014243;28;20148;-70
2024/03/31 05:35:21;;;;;;;5.97;3.75;;;;;;;10.92;100.00;99320.66;4999170;28;20049;-69
2024/03/31 05:37:53;;;;;;;5.47;3.42;;;;;;;10.99;100.00;99325.16;4990783;28;20475;-69
2024/03/31 05:40:19;;;;;;;4.15;3.40;;;;;;;11.01;100.00;99317.81;4943026;28;20082;-69
2024/03/31 05:42:45;;;;;;;4.85;3.05;;;;;;;11.10;100.00;99327.44;4927487;28;20061;-69
2024/03/31 05:45:15;;;;;;;4.53;3.38;;;;;;;11.20;100.00;99320.13;4936935;28;20090;-69
2024/03/31 05:47:41;;;;;;;4.25;3.00;;;;;;;11.37;100.00;99323.56;4936185;29;20055;-69
2024/03/31 05:50:07;;;;;;;3.22;2.85;;;;;;;11.43;100.00;99331.69;4939342;28;20058;-69
2024/03/31 05:52:33;;;;;;;3.65;2.60;;;;;;;11.57;100.00;99328.34;4955157;28;20054;-69
2024/03/31 05:55:01;;;;;;;4.28;3.25;;;;;;;11.71;100.00;99335.63;4923448;28;20062;-71
2024/03/31 05:57:30;;;;;;;3.42;2.42;;;;;;;11.84;100.00;99341.22;4939783;28;20055;-69
2024/03/31 05:59:58;;;;;;;3.75;2.40;;;;;;;12.09;100.00;99343.75;4955112;28;20137;-70
2024/03/31 06:02:26;;;;;;;3.25;2.50;;;;;;;12.11;100.00;99349.72;4924406;28;20157;-70
2024/03/31 06:04:51;;;;;;;4.03;2.83;;;;;;;12.21;100.00;99350.34;4955198;28;20149;-70
2024/03/31 06:07:18;;;;;;;3.90;2.72;;;;;;;12.33;100.00;99351.63;4954795;28;20039;-68
2024/03/31 06:09:45;;;;;;;5.03;2.80;;;;;;;12.45;100.00;99351.03;4989052;28;20453;-68
2024/03/31 06:12:14;;;;;;;3.70;2.95;;;;;;;12.69;100.00;99355.34;4980885;28;20065;-68
2024/03/31 06:14:44;;;;;;;3.42;2.67;;;;;;;12.76;100.00;99349.13;4996804;28;20136;-70
2024/03/31 06:17:10;;;;;;;3.42;2.70;;;;;;;12.81;100.00;99368.06;5029125;28;20057;-67
2024/03/31 06:19:36;;;;;;;3.97;2.80;;;;;;;12.94;100.00;99362.97;5017854;28;20133;-68
2024/03/31 06:22:03;;;;;;;4.30;2.75;;;;;;;13.10;100.00;99359.38;5017975;28;20045;-69
2024/03/31 06:24:29;;;;;;;3.95;2.40;;;;;;;13.23;100.00;99356.91;5017724;28;20045;-68
2024/03/31 06:26:58;;;;;;;4.80;2.83;;;;;;;13.40;100.00;99364.56;5034763;28;20049;-69
2024/03/31 06:29:26;;;;;;;3.05;2.30;;;;;;;13.56;100.00;99368.91;5034547;28;20537;-68
2024/03/31 06:31:52;;;;;;;7.10;2.50;;;;;;;13.70;100.00;99362.72;5034908;28;20415;-69
2024/03/31 06:34:18;;;;;;;4.57;2.95;;;;;;;13.88;100.00;99370.38;5017520;28;20036;-67
2024/03/31 06:36:44;;;;;;;7.95;3.30;;;;;;;14.04;100.00;99370.19;5017448;28;20076;-68
2024/03/31 06:39:10;;;;;;;7.00;3.33;;;;;;;14.19;100.00;99365.63;5017680;28;20053;-68
2024/03/31 06:41:36;;;;;;;4.18;2.67;;;;;;;14.34;100.00;99374.47;5017606;28;20037;-69
2024/03/31 06:44:02;;;;;;;4.03;2.80;;;;;;;14.52;100.00;99378.38;4970401;28;20251;-69
2024/03/31 06:46:30;;;;;;;3.53;2.70;;;;;;;14.67;100.00;99381.81;4923243;28;20039;-69
2024/03/31 06:48:56;;;;;;;4.43;2.40;;;;;;;14.84;100.00;99385.06;4938642;28;20149;-70
2024/03/31 06:51:23;;;;;;;3.42;2.00;;;;;;;14.99;100.00;99383.19;4938818;28;20089;-70
2024/03/31 06:53:55;;;;;;;2.78;2.08;;;;;;;15.27;100.00;99384.84;4954413;28;20078;-69
2024/03/31 06:56:21;;;;;;;3.92;2.33;;;;;;;15.34;100.00;99387.59;4938759;28;20450;-70
2024/03/31 06:58:50;;;;;;;4.93;2.25;;;;;;;15.50;100.00;99392.66;4916203;29;20495;-69
2024/03/31 07:01:17;;;;;;;2.88;2.00;;;;;;;15.66;100.00;99387.00;4916326;29;20044;-70
2024/03/31 07:03:47;;;;;;;5.70;2.30;;;;;;;15.95;100.00;99385.94;4878577;29;20061;-69
2024/03/31 07:06:14;;;;;;;3.03;2.00;;;;;;;15.99;100.00;99396.03;4829783;29;20057;-70
2024/03/31 07:08:43;;;;;;;2.60;2.15;;;;;;;16.12;100.00;99392.63;4860014;29;20056;-68
2024/03/31 07:11:09;;;;;;;3.90;2.55;;;;;;;16.28;100.00;99395.78;4860163;29;20176;-70
2024/03/31 07:13:35;;;;;;;3.95;2.55;;;;;;;16.44;100.00;99402.66;4845508;29;20498;-69
2024/03/31 07:16:06;;;;;;;4.25;2.75;;;;;;;16.58;100.00;99407.88;4873939;29;20135;-70
2024/03/31 07:18:35;;;;;;;7.10;3.08;;;;;;;16.80;100.00;99416.59;4894122;29;20056;-69
2024/03/31 07:21:01;;;;;;;5.47;3.47;;;;;;;16.94;100.00;99412.09;4904127;29;20494;-69
2024/03/31 07:23:27;;;;;;;6.15;3.42;;;;;;;17.16;100.00;99417.06;4908060;29;20052;-69
2024/03/31 07:25:55;;;;;;;6.75;2.97;;;;;;;17.48;100.00;99426.19;4910149;29;20154;-70
2024/03/31 07:28:23;;;;;;;5.68;3.10;;;;;;;17.72;100.00;99429.06;4926253;29;20047;-70
2024/03/31 07:30:50;;;;;;;5.35;3.25;;;;;;;18.08;100.00;99428.59;4947048;29;20201;-70
2024/03/31 07:33:16;;;;;;;7.55;4.70;;;;;;;18.81;100.00;99428.09;4955672;28;20038;-70
2024/03/31 07:35:42;;;;;;;8.07;4.72;;;;;;;20.78;98.19;99415.25;4916591;28;20058;-70
2024/03/31 07:38:08;;;;;;;4.85;4.15;;;;;;;24.15;72.70;99431.31;4940178;28;20206;-70
2024/03/31 07:40:34;;;;;;;6.95;4.57;;;;;;;27.69;51.05;99425.13;4944100;28;20045;-71
2024/03/31 07:43:00;;;;;;;7.35;3.72;;;;;;;30.72;37.26;99431.97;4990153;28;20060;-69
2024/03/31 07:45:26;;;;;;;4.00;3.30;;;;;;;33.10;30.92;99414.59;4980613;28;20115;-71
2024/03/31 07:47:51;;;;;;;3.22;2.83;;;;;;;35.02;26.28;99428.50;4972099;28;20108;-71
2024/03/31 07:50:17;;;;;;;4.28;3.03;;;;;;;36.57;23.79;99422.41;4973664;28;20041;-71
2024/03/31 07:52:44;;;;;;;3.97;2.80;;;;;;;37.66;21.21;99421.97;4987765;28;20053;-72
2024/03/31 07:55:10;;;;;;;3.50;2.53;;;;;;;39.07;19.87;99427.59;5008241;28;20038;-72
2024/03/31 07:57:40;;;;;;;2.60;2.22;;;;;;;40.21;18.34;99427.72;4990354;28;20538;-71
2024/03/31 08:00:07;;;;;;;3.10;2.50;;;;;;;40.94;17.35;99416.78;4989856;28;20149;-72
2024/03/31 08:02:40;;;;;;;2.58;2.30;;;;;;;41.79;16.02;99403.50;4939204;28;20471;-73
2024/03/31 08:05:07;;;;;;;3.42;2.10;;;;;;;42.48;15.46;99413.53;4938355;28;20058;-72
2024/03/31 08:07:35;;;;;;;2.33;1.92;;;;;;;42.99;15.03;99412.75;4954681;28;20097;-73
2024/03/31 08:10:03;;;;;;;2.95;2.40;;;;;;;43.27;14.44;99409.56;4939173;28;20054;-71
2024/03/31 08:12:31;;;;;;;4.28;2.47;;;;;;;43.65;14.08;99414.84;4936695;28;20466;-73
2024/03/31 08:14:59;;;;;;;2.60;2.40;;;;;;;44.16;13.19;99413.00;4960963;28;20169;-72
2024/03/31 08:17:25;;;;;;;2.55;2.13;;;;;;;43.84;13.62;99417.44;4964640;28;20544;-71
2024/03/31 08:19:52;;;;;;;2.92;2.50;;;;;;;43.43;13.20;99418.53;4985092;28;20568;-70
2024/03/31 08:22:18;;;;;;;3.75;2.30;;;;;;;43.26;13.23;99407.94;4973579;28;20084;-70
2024/03/31 08:24:48;;;;;;;4.35;2.20;;;;;;;43.87;13.17;99419.50;4952039;28;20034;-70
2024/03/31 08:27:16;;;;;;;2.42;2.20;;;;;;;44.41;12.66;99399.25;4973634;28;20046;-71
2024/03/31 08:29:44;;;;;;;4.00;2.50;;;;;;;44.85;12.39;99408.38;4975325;28;20137;-71
2024/03/31 08:32:11;;;;;;;5.03;2.10;;;;;;;45.48;11.91;99402.31;4953524;28;20436;-72
2024/03/31 08:34:37;;;;;;;2.47;2.15;;;;;;;44.85;11.40;99404.75;5018361;28;20046;-72
2024/03/31 08:37:04;;;;;;;4.07;2.30;;;;;;;43.16;12.38;99406.59;5024042;28;20073;-72
2024/03/31 08:39:30;;;;;;;5.15;2.30;;;;;;;43.58;12.54;99399.97;5017102;28;20109;-71
2024/03/31 08:42:11;;;;;;;2.28;2.08;;;;;;;44.84;11.52;99417.19;5037663;28;20041;-72
2024/03/31 08:44:39;;;;;;;2.60;2.40;;;;;;;45.01;11.95;99405.25;5031799;28;20051;-70
2024/03/31 08:47:12;;;;;;;3.97;2.20;;;;;;;45.88;11.12;99402.88;5024297;28;20111;-71
2024/03/31 08:49:39;;;;;;;6.28;2.17;;;;;;;46.04;10.42;99405.28;5019105;28;20101;-70
2024/03/31 08:52:06;;;;;;;6.15;2.38;;;;;;;45.83;10.85;99397.63;4993598;28;20058;-72
2024/03/31 08:54:33;;;;;;;2.67;2.20;;;;;;;46.26;10.68;99397.72;4989053;28;20053;-71
2024/03/31 08:56:59;;;;;;;5.63;2.70;;;;;;;45.53;10.61;99399.94;4992511;28;20273;-72
2024/03/31 08:59:25;;;;;;;3.38;2.55;;;;;;;44.79;10.85;99395.13;5002187;28;20077;-72
2024/03/31 09:01:53;;;;;;;3.22;2.92;;;;;;;43.71;11.69;99390.94;4984264;28;20534;-72
2024/03/31 09:04:19;;;;;;;4.60;2.85;;;;;;;44.77;11.57;99384.28;4974260;28;20059;-71
2024/03/31 09:06:46;;;;;;;6.20;2.47;;;;;;;46.13;10.70;99386.06;4991405;28;20054;-72
2024/03/31 09:09:12;;;;;;;3.13;2.30;;;;;;;46.50;9.82;99392.09;4988357;28;20058;-72
2024/03/31 09:11:38;;;;;;;3.75;2.33;;;;;;;47.03;9.89;99392.81;4940376;28;20054;-73
2024/03/31 09:14:03;;;;;;;3.95;2.22;;;;;;;46.98;9.92;99401.66;4955981;28;20050;-74
2024/03/31 09:16:29;;;;;;;4.55;2.40;;;;;;;47.16;9.63;99396.78;4955629;28;20054;-72
2024/03/31 09:18:55;;;;;;;3.60;2.20;;;;;;;47.40;9.44;99397.91;4971649;28;20200;-71
2024/03/31 09:21:22;;;;;;;3.55;2.50;;;;;;;47.46;9.18;99402.69;4955869;28;20058;-72
2024/03/31 09:23:48;;;;;;;3.95;2.50;;;;;;;47.72;9.10;99392.94;4955745;28;20064;-71
2024/03/31 09:26:14;;;;;;;4.40;2.33;;;;;;;47.98;8.80;99395.19;4971863;28;20133;-73
2024/03/31 09:28:40;;;;;;;3.65;2.17;;;;;;;47.91;8.24;99392.41;4972226;28;20050;-72
2024/03/31 09:31:07;;;;;;;2.90;2.10;;;;;;;47.98;8.25;99397.22;4987503;28;20120;-71
2024/03/31 09:33:34;;;;;;;1.80;1.70;;;;;;;48.40;8.32;99396.88;4971740;28;20436;-71
2024/03/31 09:36:01;;;;;;;2.17;1.70;;;;;;;48.69;7.60;99401.88;4971967;28;20121;-71
2024/03/31 09:38:29;;;;;;;1.75;1.25;;;;;;;48.42;7.80;99405.75;4939962;28;20034;-73
2024/03/31 09:40:58;;;;;;;2.38;2.00;;;;;;;47.79;8.09;99392.09;4932993;29;20070;-72
2024/03/31 09:43:24;;;;;;;2.60;2.40;;;;;;;47.19;8.60;99393.16;4917841;29;20122;-72
2024/03/31 09:45:50;;;;;;;1.75;1.65;;;;;;;47.11;8.10;99397.22;4935959;28;20059;-71
2024/03/31 09:48:19;;;;;;;1.58;1.48;;;;;;;46.83;8.16;99388.00;4952817;28;20055;-72
2024/03/31 09:51:02;;;;;;;3.67;1.70;;;;;;;45.28;8.72;99395.41;4968852;28;20146;-72
2024/03/31 09:53:30;;;;;;;1.35;1.25;;;;;;;44.99;8.72;99397.25;5011718;28;20057;-69
2024/03/31 09:56:03;;;;;;;1.77;1.50;;;;;;;44.76;8.66;99399.50;5010540;28;20087;-68
2024/03/31 09:58:33;;;;;;;2.08;1.85;;;;;;;45.19;8.91;99397.75;5026964;28;20059;-71
2024/03/31 10:01:01;;;;;;;1.98;1.67;;;;;;;45.52;8.87;99401.13;5010589;28;20053;-68
2024/03/31 10:03:31;;;;;;;4.68;1.70;;;;;;;44.01;8.98;99388.06;5026759;28;20140;-68
2024/03/31 10:05:57;;;;;;;1.98;1.63;;;;;;;44.18;9.40;99385.41;5009905;28;20053;-68
2024/03/31 10:08:29;;;;;;;1.92;1.63;;;;;;;45.00;8.90;99395.22;5010296;28;20053;-68
2024/03/31 10:10:59;;;;;;;1.83;1.65;;;;;;;45.33;8.65;99390.22;4997302;28;20049;-69
2024/03/31 10:13:28;;;;;;;3.00;1.75;;;;;;;46.13;8.32;99394.50;5024794;28;20044;-69
2024/03/31 10:15:57;;;;;;;2.42;2.20;;;;;;;46.57;8.09;99394.09;5047548;28;20059;-68
2024/03/31 10:18:24;;;;;;;2.22;2.10;;;;;;;46.77;7.82;99396.06;5057384;28;20055;-69
2024/03/31 10:20:51;;;;;;;1.80;1.70;;;;;;;46.67;7.86;99393.28;5023819;28;20389;-69
2024/03/31 10:23:18;;;;;;;1.88;1.77;;;;;;;46.81;7.64;99382.78;5044397;28;20048;-70
2024/03/31 10:25:45;;;;;;;1.95;1.77;;;;;;;46.35;7.53;99384.06;5027789;28;20045;-69
2024/03/31 10:28:15;;;;;;;2.35;2.10;;;;;;;46.24;7.71;99386.06;5054989;28;20045;-70
2024/03/31 10:30:41;;;;;;;2.92;1.70;;;;;;;46.49;7.82;99387.66;5034031;28;20487;-70
2024/03/31 10:33:09;;;;;;;1.85;1.70;;;;;;;47.05;7.90;99379.16;5050184;28;20140;-71
2024/03/31 10:35:37;;;;;;;2.40;2.20;;;;;;;47.45;7.54;99392.66;5051390;28;20037;-70
2024/03/31 10:38:03;;;;;;;2.38;2.10;;;;;;;46.18;7.73;99385.66;5049732;28;20069;-70
2024/03/31 10:40:29;;;;;;;2.75;1.85;;;;;;;45.38;8.04;99391.84;5016763;28;20045;-70
2024/03/31 10:42:55;;;;;;;1.63;1.52;;;;;;;45.45;7.80;99375.06;5050403;28;20052;-70
2024/03/31 10:45:25;;;;;;;1.80;1.70;;;;;;;45.66;7.46;99369.47;5032894;28;20174;-70
2024/03/31 10:47:51;;;;;;;1.70;1.60;;;;;;;45.61;7.65;99370.69;5016752;28;20040;-71
2024/03/31 10:50:24;;;;;;;1.87;1.77;;;;;;;44.89;8.01;99369.94;5049629;28;20057;-71
2024/03/31 10:52:49;;;;;;;2.15;1.42;;;;;;;44.67;8.08;99377.41;5033102;28;20045;-71
2024/03/31 10:55:17;;;;;;;1.77;1.63;;;;;;;45.08;7.93;99371.66;5017030;28;20044;-70
2024/03/31 10:57:44;;;;;;;5.33;1.90;;;;;;;45.13;7.74;99372.13;5053587;28;20041;-70
2024/03/31 11:00:17;;;;;;;1.60;1.50;;;;;;;45.58;8.06;99365.06;5037178;28;20064;-71
2024/03/31 11:02:43;;;;;;;3.38;1.42;;;;;;;45.90;7.59;99365.97;5020418;28;20090;-70
2024/03/31 11:05:11;;;;;;;2.38;1.60;;;;;;;45.75;7.38;99356.66;5020400;28;20136;-70
2024/03/31 11:07:41;;;;;;;2.83;1.35;;;;;;;45.53;7.66;99362.66;5053514;28;20053;-71
2024/03/31 11:10:12;;;;;;;1.30;1.20;;;;;;;45.42;7.87;99365.44;5020510;28;20102;-68
2024/03/31 11:12:42;;;;;;;1.70;1.30;;;;;;;45.36;8.14;99346.53;5020148;28;20051;-68
2024/03/31 11:15:08;;;;;;;1.42;1.33;;;;;;;44.81;7.98;99354.28;5036405;28;20041;-70
2024/03/31 11:17:34;;;;;;;1.77;1.00;;;;;;;44.47;7.98;99350.06;5036440;28;20048;-70
2024/03/31 11:20:02;;;;;;;4.13;0.95;;;;;;;44.45;8.18;99346.81;5033211;28;20037;-70
2024/03/31 11:22:32;;;;;;;6.03;1.52;;;;;;;43.90;8.17;99333.97;5017084;28;20048;-70
2024/03/31 11:24:58;;;;;;;1.48;1.20;;;;;;;43.66;8.72;99342.91;5019419;28;20041;-70
2024/03/31 11:27:25;;;;;;;2.35;1.33;;;;;;;42.12;8.98;99331.13;5036319;28;20071;-70
2024/03/31 11:29:51;;;;;;;1.67;1.00;;;;;;;41.88;9.42;99327.91;5019982;28;20047;-70
2024/03/31 11:32:17;;;;;;;1.30;0.90;;;;;;;41.34;9.42;99325.28;5036759;28;20381;-69
2024/03/31 11:34:45;;;;;;;3.55;1.00;;;;;;;41.11;9.75;99318.84;5019752;28;20132;-70